Time;durP1;ratioP1;P1;durP2;ratioP2;P2;SDS_P1;SDS_P2;PMS_P1;PMS_P2;Temp;Humidity;BMP_temperature;BMP_pressure;BME280_temperature;BME280_humidity;BME280_pressure;Samples;Min_cycle;Max_cycle;Signal;HPM_P1;HPM_P2
2021/04/17 00:01:56;;;;;;;;;;;;;;;-144.99;59.16;52285.03;5047309;28;20052;-73
2021/04/17 00:04:22;;;;;;;;;;;;;;;-144.99;59.28;52260.56;5035261;28;19978;-74
2021/04/17 00:06:48;;;;;;;;;;;;;;;-144.99;59.45;52289.13;5035072;28;19981;-73
2021/04/17 00:09:16;;;;;;;;;;;;;;;-144.99;59.51;52272.81;5033160;28;19996;-71
2021/04/17 00:11:45;;;;;;;;;;;;;;;-144.99;59.50;52252.44;5041651;28;20424;-72
2021/04/17 00:14:13;;;;;;;;;;;;;;;-144.99;59.45;52272.81;5031393;28;20034;-70
2021/04/17 00:16:39;;;;;;;;;;;;;;;-144.99;59.60;52289.13;5039015;28;19978;-73
2021/04/17 00:19:05;;;;;;;;;;;;;;;-144.99;59.73;52297.25;5038046;28;20007;-72
2021/04/17 00:21:31;;;;;;;;;;;;;;;-144.99;59.96;52260.56;5040865;28;19967;-74
2021/04/17 00:23:57;;;;;;;;;;;;;;;-144.99;60.03;52252.44;5041429;28;19987;-73
2021/04/17 00:26:24;;;;;;;;;;;;;;;-144.99;60.04;52276.88;5050046;28;20329;-72
2021/04/17 00:28:51;;;;;;;;;;;;;;;-144.99;60.27;52260.56;5036470;28;20042;-71
2021/04/17 00:31:17;;;;;;;;;;;;;;;-144.99;60.44;52244.28;5040317;28;19976;-73
2021/04/17 00:33:43;;;;;;;;;;;;;;;-144.99;60.65;52289.13;5040690;28;19976;-71
2021/04/17 00:36:09;;;;;;;;;;;;;;;-144.99;60.75;52264.66;5030305;28;20349;-74
2021/04/17 00:38:35;;;;;;;;;;;;;;;-144.99;60.70;52289.13;5034581;28;20014;-75
2021/04/17 00:41:01;;;;;;;;;;;;;;;-144.99;60.80;52297.25;5046382;28;20393;-73
2021/04/17 00:43:27;;;;;;;;;;;;;;;-144.99;60.94;52244.28;5031491;28;20074;-75
2021/04/17 00:45:54;;;;;;;;;;;;;;;-144.99;60.90;52272.81;5047882;28;19979;-76
2021/04/17 00:48:20;;;;;;;;;;;;;;;-144.99;60.79;52313.56;5032008;28;20489;-75
2021/04/17 00:50:46;;;;;;;;;;;;;;;-144.99;60.79;52305.41;5038367;28;19975;-76
2021/04/17 00:53:13;;;;;;;;;;;;;;;-144.99;60.64;52272.81;5036655;28;20013;-76
2021/04/17 00:55:39;;;;;;;;;;;;;;;-144.99;60.52;52313.56;5036791;28;19972;-72
2021/04/17 00:58:05;;;;;;;;;;;;;;;-144.99;60.61;52272.81;5030914;28;19976;-72
2021/04/17 01:00:34;;;;;;;;;;;;;;;-144.99;60.64;52262.63;5035128;28;19990;-74
2021/04/17 01:03:04;;;;;;;;;;;;;;;-144.99;60.41;52272.81;5039088;28;20424;-73
2021/04/17 01:05:32;;;;;;;;;;;;;;;-144.99;60.62;52256.50;5030382;28;19955;-73
2021/04/17 01:08:00;;;;;;;;;;;;;;;-144.99;60.61;52278.91;5030349;28;20014;-74
2021/04/17 01:10:31;;;;;;;;;;;;;;;-144.99;60.42;52262.63;5034606;28;19983;-74
2021/04/17 01:12:57;;;;;;;;;;;;;;;-144.99;60.55;52280.97;5039390;28;19975;-71
2021/04/17 01:15:24;;;;;;;;;;;;;;;-144.99;60.56;52268.72;5037471;28;19970;-73
2021/04/17 01:17:52;;;;;;;;;;;;;;;-144.99;60.55;52225.94;5033217;28;20468;-73
2021/04/17 01:20:21;;;;;;;;;;;;;;;-144.99;60.62;52280.97;5035815;28;19992;-72
2021/04/17 01:22:49;;;;;;;;;;;;;;;-144.99;60.54;52240.19;5048172;28;19975;-72
2021/04/17 01:25:17;;;;;;;;;;;;;;;-144.99;60.54;52285.03;5040706;28;19974;-73
2021/04/17 01:27:44;;;;;;;;;;;;;;;-144.99;60.34;52248.34;5045802;28;19997;-73
2021/04/17 01:30:12;;;;;;;;;;;;;;;-144.99;60.27;52242.22;5046219;28;19986;-74
2021/04/17 01:32:39;;;;;;;;;;;;;;;-144.99;60.12;52289.13;5046788;28;20026;-72
2021/04/17 01:35:07;;;;;;;;;;;;;;;-144.99;60.08;52256.50;5033728;28;20003;-74
2021/04/17 01:37:53;;;;;;;;;;;;;;;-144.99;60.18;52289.13;5032250;28;20069;-73
2021/04/17 01:40:20;;;;;;;;;;;;;;;-144.99;60.13;52244.28;5031997;28;19974;-74
2021/04/17 01:42:47;;;;;;;;;;;;;;;-144.99;60.27;52299.31;5037919;28;19971;-74
2021/04/17 01:45:17;;;;;;;;;;;;;;;-144.99;60.37;52268.72;5042270;28;19972;-72
2021/04/17 01:47:44;;;;;;;;;;;;;;;-144.99;60.52;52272.81;5041046;28;20013;-73
2021/04/17 01:50:11;;;;;;;;;;;;;;;-144.99;60.45;52291.16;5041099;28;19953;-73
2021/04/17 01:52:38;;;;;;;;;;;;;;;-144.99;60.55;52240.19;5037710;28;19925;-74
2021/04/17 01:55:05;;;;;;;;;;;;;;;-144.99;60.52;52256.50;5034918;28;19928;-73
2021/04/17 01:57:32;;;;;;;;;;;;;;;-144.99;60.68;52262.63;5042503;28;19952;-72
2021/04/17 01:59:59;;;;;;;;;;;;;;;-144.99;60.77;52252.44;5041639;28;19928;-74
2021/04/17 02:02:25;;;;;;;;;;;;;;;-144.99;60.93;52268.72;5038031;28;19921;-72
2021/04/17 02:04:50;;;;;;;;;;;;;;;-144.99;61.05;52285.03;5032638;28;19928;-73
2021/04/17 02:07:17;;;;;;;;;;;;;;;-144.99;61.27;52268.72;5034383;28;19967;-73
2021/04/17 02:09:43;;;;;;;;;;;;;;;-144.99;61.25;52266.69;5047252;28;19920;-72
2021/04/17 02:12:09;;;;;;;;;;;;;;;-144.99;61.30;52280.97;5037140;28;19928;-72
2021/04/17 02:14:35;;;;;;;;;;;;;;;-144.99;61.33;52236.13;5032176;28;20879;-72
2021/04/17 02:17:04;;;;;;;;;;;;;;;-144.99;61.31;52266.69;5032955;28;19936;-72
2021/04/17 02:19:33;;;;;;;;;;;;;;;-144.99;61.43;52289.13;5041752;28;19928;-72
2021/04/17 02:22:00;;;;;;;;;;;;;;;-144.99;61.47;52299.31;5032408;28;19921;-71
2021/04/17 02:24:27;;;;;;;;;;;;;;;-144.99;61.58;52244.28;5035304;28;19975;-72
2021/04/17 02:26:53;;;;;;;;;;;;;;;-144.99;61.69;52252.44;5031782;28;19921;-72
2021/04/17 02:29:19;;;;;;;;;;;;;;;-144.99;61.70;52260.56;5032298;28;19951;-71
2021/04/17 02:31:45;;;;;;;;;;;;;;;-144.99;61.61;52285.03;5038417;28;20027;-71
2021/04/17 02:34:12;;;;;;;;;;;;;;;-144.99;61.68;52285.03;5044305;28;19921;-72
2021/04/17 02:36:38;;;;;;;;;;;;;;;-144.99;61.51;52285.03;5031013;28;19994;-71
2021/04/17 02:39:05;;;;;;;;;;;;;;;-144.99;61.65;52266.69;5043207;28;20378;-73
2021/04/17 02:41:30;;;;;;;;;;;;;;;-144.99;61.81;52238.16;5038351;28;19952;-71
2021/04/17 02:43:56;;;;;;;;;;;;;;;-144.99;61.83;52278.91;5046264;28;19929;-74
2021/04/17 02:46:22;;;;;;;;;;;;;;;-144.99;61.96;52262.63;5037383;28;19971;-73
2021/04/17 02:48:48;;;;;;;;;;;;;;;-144.99;61.57;52285.03;5047801;28;19920;-72
2021/04/17 02:51:15;;;;;;;;;;;;;;;-144.99;61.56;52272.81;5037113;28;19944;-71
2021/04/17 02:53:41;;;;;;;;;;;;;;;-144.99;61.50;52250.38;5052033;28;19943;-73
2021/04/17 02:56:07;;;;;;;;;;;;;;;-144.99;61.22;52268.72;5044924;28;19921;-73
2021/04/17 02:58:33;;;;;;;;;;;;;;;-144.99;61.30;52260.56;5043993;28;19927;-75
2021/04/17 03:00:59;;;;;;;;;;;;;;;-144.99;60.89;52260.56;5033654;28;20310;-74
2021/04/17 03:03:26;;;;;;;;;;;;;;;-144.99;60.87;52301.34;5032047;28;19924;-73
2021/04/17 03:05:52;;;;;;;;;;;;;;;-144.99;60.91;52313.56;5031908;28;19951;-75
2021/04/17 03:08:19;;;;;;;;;;;;;;;-144.99;60.54;52252.44;5037184;28;20394;-74
2021/04/17 03:10:45;;;;;;;;;;;;;;;-144.99;60.52;52268.72;5043957;28;20280;-73
2021/04/17 03:13:11;;;;;;;;;;;;;;;-144.99;60.53;52268.72;5032620;28;19928;-72
2021/04/17 03:15:37;;;;;;;;;;;;;;;-144.99;60.45;52250.38;5031902;28;19925;-73
2021/04/17 03:18:04;;;;;;;;;;;;;;;-144.99;60.21;52256.50;5038493;28;20270;-72
2021/04/17 03:20:30;;;;;;;;;;;;;;;-144.99;60.32;52276.88;5037795;28;20046;-71
2021/04/17 03:22:56;;;;;;;;;;;;;;;-144.99;60.39;52289.13;5034143;28;19979;-70
2021/04/17 03:25:23;;;;;;;;;;;;;;;-144.99;60.37;52313.56;5032788;28;19967;-72
2021/04/17 03:27:49;;;;;;;;;;;;;;;-144.99;60.14;52240.19;5031399;28;19952;-71
2021/04/17 03:30:16;;;;;;;;;;;;;;;-144.99;60.17;52276.88;5032958;28;20380;-72
2021/04/17 03:32:42;;;;;;;;;;;;;;;-144.99;60.13;52244.28;5043741;28;19921;-72
2021/04/17 03:35:09;;;;;;;;;;;;;;;-144.99;60.08;52260.56;5031413;28;20291;-71
2021/04/17 03:37:36;;;;;;;;;;;;;;;-144.99;60.19;52260.56;5029674;28;20376;-71
2021/04/17 03:40:03;;;;;;;;;;;;;;;-144.99;60.28;52248.34;5041930;28;19927;-73
2021/04/17 03:42:30;;;;;;;;;;;;;;;-144.99;60.13;52276.88;5047627;28;19925;-70
2021/04/17 03:44:55;;;;;;;;;;;;;;;-144.99;60.04;52252.44;5041068;28;19921;-72
2021/04/17 03:47:21;;;;;;;;;;;;;;;-144.99;60.10;52250.38;5036813;28;19943;-72
2021/04/17 03:49:47;;;;;;;;;;;;;;;-144.99;59.93;52260.56;5035541;28;19982;-71
2021/04/17 03:52:14;;;;;;;;;;;;;;;-144.99;59.92;52248.34;5032099;28;19994;-71
2021/04/17 03:54:40;;;;;;;;;;;;;;;-144.99;59.87;52260.56;5031726;28;20381;-72
2021/04/17 03:57:06;;;;;;;;;;;;;;;-144.99;59.83;52244.28;5029884;28;20424;-72
2021/04/17 03:59:33;;;;;;;;;;;;;;;-144.99;59.82;52285.03;5030018;28;19951;-71
2021/04/17 04:01:59;;;;;;;;;;;;;;;-144.99;60.00;52272.81;5029765;28;19999;-71
2021/04/17 04:04:25;;;;;;;;;;;;;;;-144.99;60.05;52242.22;5030610;28;20313;-72
2021/04/17 04:06:51;;;;;;;;;;;;;;;-144.99;60.05;52285.03;5044857;28;19977;-70
2021/04/17 04:09:17;;;;;;;;;;;;;;;-144.99;60.07;52285.03;5032527;28;19921;-70
2021/04/17 04:11:43;;;;;;;;;;;;;;;-144.99;60.35;52248.34;5030297;28;19973;-70
2021/04/17 04:14:09;;;;;;;;;;;;;;;-144.99;60.48;52276.88;5038192;28;20020;-73
2021/04/17 04:16:36;;;;;;;;;;;;;;;-144.99;60.44;52285.03;5033788;28;20219;-74
2021/04/17 04:19:02;;;;;;;;;;;;;;;-144.99;60.81;52248.34;5030770;28;19976;-73
2021/04/17 04:21:28;;;;;;;;;;;;;;;-144.99;60.75;52252.44;5045834;28;19964;-71
2021/04/17 04:23:53;;;;;;;;;;;;;;;-144.99;60.93;52272.81;5038809;28;19969;-73
2021/04/17 04:26:19;;;;;;;;;;;;;;;-144.99;61.07;52268.72;5043043;28;19966;-72
2021/04/17 04:28:45;;;;;;;;;;;;;;;-144.99;61.28;52272.81;5037414;28;20029;-74
2021/04/17 04:31:11;;;;;;;;;;;;;;;-144.99;61.36;52272.81;5039630;28;19974;-72
2021/04/17 04:33:38;;;;;;;;;;;;;;;-144.99;61.54;52248.34;5047012;28;19980;-73
2021/04/17 04:36:05;;;;;;;;;;;;;;;-144.99;61.62;52223.88;5034257;28;19985;-75
2021/04/17 04:38:30;;;;;;;;;;;;;;;-144.99;61.88;52280.97;5041319;28;19982;-72
2021/04/17 04:40:58;;;;;;;;;;;;;;;-144.99;61.87;52240.19;5033117;28;20075;-75
2021/04/17 04:43:24;;;;;;;;;;;;;;;-144.99;61.95;52244.28;5048357;28;20077;-75
2021/04/17 04:45:50;;;;;;;;;;;;;;;-144.99;61.82;52268.72;5042456;28;20287;-75
2021/04/17 04:48:16;;;;;;;;;;;;;;;-144.99;62.02;52256.50;5043043;28;19956;-75
2021/04/17 04:50:43;;;;;;;;;;;;;;;-144.99;62.25;52285.03;5035105;28;19925;-75
2021/04/17 04:53:09;;;;;;;;;;;;;;;-144.99;62.20;52256.50;5045525;28;19928;-76
2021/04/17 04:55:35;;;;;;;;;;;;;;;-144.99;62.46;52272.81;5046560;28;20007;-75
2021/04/17 04:58:01;;;;;;;;;;;;;;;-144.99;62.46;52232.03;5039570;28;19921;-76
2021/04/17 05:00:27;;;;;;;;;;;;;;;-144.99;62.48;52264.66;5036977;28;19943;-76
2021/04/17 05:02:53;;;;;;;174.38;67.78;;;;;;;-144.99;62.43;52252.44;5032542;28;24489;-76
2021/04/17 05:05:20;;;;;;;;;;;;;;;-144.99;62.32;52240.19;5039267;28;20209;-72
2021/04/17 05:07:46;;;;;;;;;;;;;;;-144.99;62.27;52268.72;5046477;28;19928;-72
2021/04/17 05:10:13;;;;;;;;;;;;;;;-144.99;62.30;52238.16;5034518;28;20387;-72
2021/04/17 05:12:39;;;;;;;;;;;;;;;-144.99;62.34;52203.50;5034092;28;19928;-73
2021/04/17 05:15:06;;;;;;;155.33;63.93;;;;;;;-144.99;62.56;52232.03;5041285;28;24535;-73
2021/04/17 05:17:32;;;;;;;;;;;;;;;-144.99;62.36;52256.50;5034930;28;20252;-73
2021/04/17 05:19:58;;;;;;;;;;;;;;;-144.99;62.09;52244.28;5034141;28;19932;-73
2021/04/17 05:22:24;;;;;;;;;;;;;;;-144.99;62.11;52260.56;5048090;22;19925;-74
2021/04/17 05:24:51;;;;;;;;;;;;;;;-144.99;61.90;52248.34;4986278;28;19925;-76
2021/04/17 05:27:17;;;;;;;;;;;;;;;-144.99;61.71;52244.28;4996954;28;20331;-77
2021/04/17 05:29:43;;;;;;;;;;;;;;;-144.99;61.67;52250.38;5006148;28;19972;-77
2021/04/17 05:32:09;;;;;;;;;;;;;;;-144.99;61.27;52236.13;4994118;28;19957;-77
2021/04/17 05:34:35;;;;;;;;;;;;;;;-144.99;61.21;52270.78;5006027;28;19921;-78
2021/04/17 05:37:02;;;;;;;;;;;;;;;-144.99;61.06;52252.44;5007113;28;19928;-77
2021/04/17 05:39:28;;;;;;;;;;;;;;;-144.99;60.83;52199.44;5009893;28;19933;-80
2021/04/17 05:41:55;;;;;;;;;;;;;;;-144.99;60.76;52240.19;5018927;28;19948;-78
2021/04/17 05:44:21;;;;;;;;;;;;;;;-144.99;60.65;52264.66;5006177;28;19926;-80
2021/04/17 05:46:47;;;;;;;;;;;;;;;-144.99;60.57;52248.34;4996874;28;20016;-78
2021/04/17 05:49:13;;;;;;;;;;;;;;;-144.99;60.55;52280.97;5014949;28;19949;-79
2021/04/17 05:51:40;;;;;;;;;;;;;;;-144.99;60.44;52211.66;4991767;28;19945;-77
2021/04/17 05:54:06;;;;;;;;;;;;;;;-144.99;60.28;52244.28;4993057;28;19963;-77
2021/04/17 05:56:33;;;;;;;;;;;;;;;-144.99;60.35;52238.16;4998851;28;19925;-77
2021/04/17 05:59:00;;;;;;;;;;;;;;;-144.99;60.26;52256.50;5005778;28;19967;-78
2021/04/17 06:01:26;;;;;;;;;;;;;;;-144.99;60.01;52240.19;5005516;28;19922;-78
2021/04/17 06:03:52;;;;;;;;;;;;;;;-144.99;59.90;52223.88;5000202;28;19941;-78
2021/04/17 06:06:18;;;;;;;;;;;;;;;-144.99;59.81;52219.81;4998458;28;19921;-77
2021/04/17 06:08:44;;;;;;;;;;;;;;;-144.99;59.75;52223.88;4993624;28;19926;-78
2021/04/17 06:11:10;;;;;;;;;;;;;;;-144.99;59.82;52219.81;4993987;28;20380;-79
2021/04/17 06:13:36;;;;;;;;;;;;;;;-144.99;59.76;52248.34;4997837;28;19941;-78
2021/04/17 06:16:04;;;;;;;;;;;;;;;-144.99;59.58;52227.97;5005969;28;20493;-78
2021/04/17 06:18:30;;;;;;;;;;;;;;;-144.99;59.64;52223.88;4997320;28;19922;-75
2021/04/17 06:20:56;;;;;;;;;;;;;;;-144.99;59.57;52272.81;4989004;28;19921;-77
2021/04/17 06:23:22;;;;;;;;;;;;;;;-144.99;59.36;52244.28;5002785;28;19967;-77
2021/04/17 06:25:48;;;;;;;;;;;;;;;-144.99;59.28;52256.50;4992549;28;20372;-77
2021/04/17 06:28:14;;;;;;;;;;;;;;;-144.99;59.06;52252.44;4996693;28;19964;-77
2021/04/17 06:30:40;;;;;;;;;;;;;;;-144.99;59.06;52236.13;5003650;28;20450;-79
2021/04/17 06:33:08;;;;;;;;;;;;;;;-144.99;59.08;52207.59;5002118;28;20017;-77
2021/04/17 06:35:35;;;;;;;;;;;;;;;-144.99;58.70;52244.28;5003856;28;19921;-79
2021/04/17 06:38:01;;;;;;;;;;;;;;;-144.99;58.79;52240.19;4995234;28;19925;-77
2021/04/17 06:40:27;;;;;;;;;;;;;;;-144.99;58.41;52252.44;4995949;28;19968;-79
2021/04/17 06:42:54;;;;;;;;;;;;;;;-144.99;58.48;52227.97;5002810;28;19921;-78
2021/04/17 06:45:21;;;;;;;;;;;;;;;-144.99;58.48;52232.03;4998056;28;19929;-79
2021/04/17 06:47:47;;;;;;;;;;;;;;;-144.99;58.48;52232.03;5002356;28;19990;-79
2021/04/17 06:50:14;;;;;;;;;;;;;;;-144.99;58.63;52223.88;5005006;28;19973;-78
2021/04/17 06:52:41;;;;;;;;;;;;;;;-144.99;58.59;52195.34;5003990;28;19921;-79
2021/04/17 06:55:09;;;;;;;;;;;;;;;-144.99;58.36;52230.00;5010761;28;19989;-81
2021/04/17 06:57:35;;;;;;;;;;;;;;;-144.99;58.34;52215.75;5006577;28;19951;-82
2021/04/17 07:00:01;;;;;;;;;;;;;;;-144.99;58.32;52244.28;5001034;28;19988;-81
2021/04/17 07:02:27;;;;;;;;;;;;;;;-144.99;58.19;52223.88;5003012;28;19949;-79
2021/04/17 07:04:53;;;;;;;;;;;;;;;-144.99;59.05;52236.13;4994939;28;20016;-74
2021/04/17 07:07:20;;;;;;;;;;;;;;;-144.99;59.45;52256.50;5005956;28;20020;-74
2021/04/17 07:09:46;;;;;;;;;;;;;;;-144.99;59.62;52240.19;4994431;28;20307;-75
2021/04/17 07:12:12;;;;;;;;;;;;;;;-144.99;59.44;52187.19;4993161;28;19922;-76
2021/04/17 07:14:42;;;;;;;;;;;;;;;-144.99;59.89;52170.91;5006983;28;19926;-76
2021/04/17 07:17:09;;;;;;;;;;;;;;;-144.99;60.11;52211.66;5005477;28;19926;-76
2021/04/17 07:19:59;;;;;;;;;;;;;;;-144.99;60.07;52238.16;4994457;28;19928;-75
2021/04/17 07:22:27;;;;;;;;;;;;;;;-144.99;59.78;52201.47;4983530;28;19928;-75
2021/04/17 07:24:53;;;;;;;;;;;;;;;-144.99;59.33;52227.97;5007849;28;20387;-75
2021/04/17 07:27:29;;;;;;;;;;;;;;;-144.99;59.38;52223.88;4995065;28;20264;-76
2021/04/17 07:29:55;;;;;;;;;;;;;;;-144.99;59.04;52236.13;5007195;28;19928;-75
2021/04/17 07:32:21;;;;;;;;;;;;;;;-144.99;59.78;52199.44;4999636;28;19921;-75
2021/04/17 07:35:02;;;;;;;;;;;;;;;-144.99;59.07;52240.19;5006978;28;20042;-78
2021/04/17 07:37:29;;;;;;;;;;;;;;;-144.99;58.59;52250.38;4981795;28;19956;-74
2021/04/17 07:39:55;;;;;;;;;;;;;;;-144.99;58.03;52215.75;4992601;28;19921;-74
2021/04/17 07:42:21;;;;;;;;;;;;;;;-144.99;57.51;52227.97;5004759;28;19948;-75
2021/04/17 07:44:47;;;;;;;;;;;;;;;-144.99;57.15;52230.00;4997904;28;20474;-75
2021/04/17 07:47:29;;;;;;;;;;;;;;;-144.99;56.96;52215.75;4993325;28;19936;-75
2021/04/17 07:50:02;;;;;;;;;;;;;;;-144.99;56.09;52232.03;5000760;28;19921;-75
2021/04/17 07:52:31;;;;;;;;;;;;;;;-144.99;56.18;52207.59;4997191;28;19933;-76
2021/04/17 07:55:06;;;;;;;;;;;;;;;-144.99;56.10;52236.13;5007230;28;19944;-76
2021/04/17 07:57:32;;;;;;;;;;;;;;;-144.99;56.08;52199.44;4995896;28;19922;-73
2021/04/17 07:59:58;;;;;;;;;;;;;;;-144.99;55.91;52227.97;4995427;28;19934;-77
2021/04/17 08:02:24;;;;;;;;;;;;;;;-144.99;55.71;52199.44;4989311;28;19922;-75
2021/04/17 08:04:51;;;;;;;;;;;;;;;-144.99;55.59;52193.31;4990881;28;19957;-75
2021/04/17 08:07:18;;;;;;;;;;;;;;;-144.99;55.45;52227.97;4990829;28;19922;-76
2021/04/17 08:09:46;;;;;;;;;;;;;;;-144.99;55.12;52215.75;4991006;28;20442;-75
2021/04/17 08:12:14;;;;;;;;;;;;;;;-144.99;54.48;52201.47;4990465;28;19921;-76
2021/04/17 08:14:40;;;;;;;;;;;;;;;-144.99;54.06;52221.84;4989358;28;20023;-76
2021/04/17 08:17:07;;;;;;;;;;;;;;;-144.99;53.54;52207.59;4995871;28;20117;-76
2021/04/17 08:19:33;;;;;;;;;;;;;;;-144.99;53.25;52211.66;4991829;28;19926;-74
2021/04/17 08:21:59;;;;;;;;;;;;;;;-144.99;52.91;52207.59;4991180;28;19929;-77
2021/04/17 08:24:26;;;;;;;;;;;;;;;-144.99;52.70;52174.97;4987206;28;20388;-75
2021/04/17 08:26:54;;;;;;;;;;;;;;;-144.99;52.70;52158.66;4986694;28;19926;-76
2021/04/17 08:29:39;;;;;;;;;;;;;;;-144.99;52.77;52187.19;4988332;28;19925;-75
2021/04/17 08:32:05;;;;;;;;;;;;;;;-144.99;52.97;52219.81;4990047;28;20311;-76
2021/04/17 08:34:31;;;;;;;;;;;;;;;-144.99;53.11;52199.44;4992615;28;19925;-76
2021/04/17 08:37:02;;;;;;;;;;;;;;;-144.99;53.42;52189.25;4998425;28;19925;-76
2021/04/17 08:39:43;;;;;;;;;;;;;;;-144.99;53.67;52219.81;4988543;28;20380;-77
2021/04/17 08:42:12;;;;;;;;;;;;;;;-144.99;53.16;52183.13;4989640;28;19925;-74
2021/04/17 08:44:39;;;;;;;;;;;;;;;-144.99;53.22;52207.59;5000043;28;19926;-75
2021/04/17 08:47:06;;;;;;;;;;;;;;;-144.99;53.03;52211.66;4989021;28;19933;-75
2021/04/17 08:49:33;;;;;;;;;;;;;;;-144.99;52.84;52185.16;4988856;28;19921;-76
2021/04/17 08:52:19;;;;;;;;;;;;;;;-144.99;52.76;52207.59;4988548;28;19936;-76
2021/04/17 08:54:46;;;;;;;;;;;;;;;-144.99;52.26;52213.69;4997222;28;20371;-77
2021/04/17 08:57:13;;;;;;;;;;;;;;;-144.99;52.38;52227.97;4999530;28;20276;-76
2021/04/17 08:59:40;;;;;;;;;;;;;;;-144.99;52.28;52211.66;4992271;28;20395;-77
2021/04/17 09:02:08;;;;;;;;;;;;;;;-144.99;52.46;52223.88;4989597;28;20017;-76
2021/04/17 09:04:37;;;;;;;;;;;;;;;-144.99;52.79;52179.06;5000420;28;20438;-76
2021/04/17 09:07:14;;;;;;;;;;;;;;;-144.99;52.70;52158.66;4997965;28;19925;-75
2021/04/17 09:09:40;;;;;;;;;;;;;;;-144.99;52.71;52207.59;4995311;28;19933;-76
2021/04/17 09:12:24;;;;;;;;;;;;;;;-144.99;52.70;52197.41;4994479;28;19937;-77
2021/04/17 09:14:51;;;;;;;;;;;;;;;-144.99;52.58;52211.66;4979922;28;19926;-76
2021/04/17 09:17:36;;;;;;;;;;;;;;;-144.99;52.62;52179.06;4996190;28;19926;-76
2021/04/17 09:20:03;;;;;;;;;;;;;;;-144.99;52.25;52215.75;4989733;28;19925;-77
2021/04/17 09:22:46;;;;;;;;;;;;;;;-144.99;52.37;52211.66;4992389;28;19925;-76
2021/04/17 09:25:13;;;;;;;;;;;;;;;-144.99;52.39;52189.25;4989364;28;19933;-76
2021/04/17 09:27:40;;;;;;;;;;;;;;;-144.99;52.37;52227.97;4992706;28;19925;-76
2021/04/17 09:30:08;;;;;;;;;;;;;;;-144.99;51.57;52211.66;4988817;28;19977;-76
2021/04/17 09:32:34;;;;;;;;;;;;;;;-144.99;51.08;52134.22;4988583;28;19922;-75
2021/04/17 09:35:01;;;;;;;;;;;;;;;-144.99;50.67;52166.81;4989870;28;20312;-76
2021/04/17 09:37:27;;;;;;;;;;;;;;;-144.99;50.34;52185.16;5005287;28;20455;-74
2021/04/17 09:39:53;;;;;;;;;;;;;;;-144.99;49.67;52183.13;4301631;28;10000713;-77
2021/04/17 09:42:28;;;;;;;;;;;;;;;-144.99;49.57;52197.41;4997512;28;20420;-76
2021/04/17 09:44:54;;;;;;;;;;;;;;;-144.99;49.28;52183.13;4995581;28;19933;-76
2021/04/17 09:47:21;;;;;;;;;;;;;;;-144.99;48.81;52154.59;4993236;28;19921;-76
2021/04/17 09:49:48;;;;;;;;;;;;;;;-144.99;48.21;52170.91;4996246;28;19933;-76
2021/04/17 09:52:18;;;;;;;;;;;;;;;-144.99;47.80;52183.13;4993332;28;19961;-78
2021/04/17 09:54:44;;;;;;;;;;;;;;;-144.99;47.05;52187.19;4997253;28;20040;-78
2021/04/17 09:57:10;;;;;;;;;;;;;;;-144.99;47.05;52158.66;4996816;28;20016;-77
2021/04/17 09:59:37;;;;;;;;;;;;;;;-144.99;46.78;52179.06;4998979;28;19942;-78
2021/04/17 10:02:03;;;;;;;;;;;;;;;-144.99;46.62;52128.09;4993136;28;19925;-75
2021/04/17 10:04:50;;;;;;;;;;;;;;;-144.99;46.42;52174.97;4995225;28;20155;-74
2021/04/17 10:07:16;;;;;;;;;;;;;;;-144.99;46.27;52077.16;4988836;28;20024;-78
2021/04/17 10:09:43;;;;;;;;;;;;;;;-144.99;46.29;52130.13;4988934;28;19925;-76
2021/04/17 10:12:09;;;;;;;;;;;;;;;-144.99;45.28;52179.06;5000887;28;19930;-77
2021/04/17 10:14:35;;;;;;;;;;;;;;;-144.99;44.31;52097.53;4998552;28;20415;-77
2021/04/17 10:17:02;;;;;;;;;;;;;;;-144.99;43.46;52056.78;4991762;28;19922;-78
2021/04/17 10:19:29;;;;;;;;;;;;;;;-144.99;42.77;52089.38;4993358;28;19930;-77
2021/04/17 10:21:58;;;;;;;;;;;;;;;-144.99;42.29;52064.91;4985909;28;20028;-77
2021/04/17 10:24:25;;;;;;;;;;;;;;;-144.99;41.14;52060.84;4995676;28;19960;-78
2021/04/17 10:26:52;;;;;;;;;;;;;;;-144.99;40.27;52081.22;4997118;28;19956;-77
2021/04/17 10:29:18;;;;;;;;;;;;;;;-144.99;39.54;52050.66;4994356;28;19992;-76
2021/04/17 10:31:44;;;;;;;;;;;;;;;-144.99;39.83;52018.03;5000090;28;19921;-78
2021/04/17 10:34:11;;;;;;;;;;;;;;;-144.99;39.28;51991.56;5004481;28;19921;-77
2021/04/17 10:36:36;;;;;;;;;;;;;;;-144.99;37.95;52022.13;4993891;28;19968;-76
2021/04/17 10:39:07;;;;;;;;;;;;;;;-144.99;37.38;51987.47;4994376;28;20396;-76
2021/04/17 10:41:34;;;;;;;;;;;;;;;-144.99;37.23;52016.00;4994697;28;19929;-78
2021/04/17 10:44:07;;;;;;;;;;;;;;;-144.99;36.50;51963.03;4999523;28;20447;-78
2021/04/17 10:46:40;;;;;;;102.55;60.08;;;;;;;-144.99;36.61;51948.75;4992924;28;24572;-77
2021/04/17 10:49:06;;;;;;;;;;;;;;;-144.99;36.40;51938.56;4996479;28;20268;-76
2021/04/17 10:51:35;;;;;;;;;;;;;;;-144.99;35.67;51950.78;5003628;28;19959;-76
2021/04/17 10:54:02;;;;;;;;;;;;;;;-144.99;35.75;51979.31;5000115;28;19992;-77
2021/04/17 10:56:29;;;;;;;;;;;;;;;-144.99;35.50;51920.22;4992921;28;20385;-75
2021/04/17 10:58:57;;;;;;;;;;;;;;;-144.99;34.98;51969.13;4993955;28;19991;-75
2021/04/17 11:01:24;;;;;;;;;;;;;;;-144.99;34.74;51873.34;5002464;28;19944;-77
2021/04/17 11:03:51;;;;;;;;;;;;;;;-144.99;34.16;51897.81;4998781;28;19968;-79
2021/04/17 11:06:18;;;;;;;;;;;;;;;-144.99;34.22;51905.97;4994736;28;19932;-78
2021/04/17 11:08:45;;;;;;;;;;;;;;;-144.99;33.99;51914.09;4993752;28;20523;-76
2021/04/17 11:11:13;;;;;;;;;;;;;;;-144.99;33.91;51893.72;4996306;28;19998;-77
2021/04/17 11:13:41;;;;;;;;;;;;;;;-144.99;33.53;51918.19;4995547;28;19976;-76
2021/04/17 11:16:07;;;;;;;;;;;;;;;-144.99;33.00;51899.84;5001895;28;20322;-78
2021/04/17 11:18:37;;;;;;;148.75;72.93;;;;;;;-144.99;32.11;51873.34;4990215;28;24502;-74
2021/04/17 11:21:04;;;;;;;;;;;;;;;-144.99;32.19;51987.47;4994000;28;20686;-75
2021/04/17 11:23:43;;;;;;;150.82;74.93;;;;;;;-144.99;32.09;52032.31;4993963;28;24579;-76
2021/04/17 11:26:13;;;;;;;89.40;59.33;;;;;;;-144.99;32.50;52020.09;4300271;28;10000896;-76
2021/04/17 11:28:43;;;;;;;60.57;49.40;;;;;;;-144.99;32.48;52054.72;4990703;28;20783;-77
2021/04/17 11:31:09;;;;;;;;;;;;;;;-144.99;32.50;52032.31;4991522;28;20221;-77
2021/04/17 11:33:36;;;;;;;135.20;67.30;;;;;;;-144.99;31.96;52044.53;4989842;28;24504;-74
2021/04/17 11:36:02;;;;;;;;;;;;;;;-144.99;32.46;51942.63;5026400;22;20692;-74
2021/04/17 11:38:28;;;;;;;148.20;70.82;;;;;;;-144.99;33.05;51942.63;5002309;28;24551;-74
2021/04/17 11:40:54;;;;;;;;;;;;;;;-144.99;32.17;51938.56;5007978;28;20404;-73
2021/04/17 11:43:21;;;;;;;116.93;64.20;;;;;;;-144.99;31.54;51895.75;5007329;28;24960;-75
2021/04/17 11:45:48;;;;;;;43.80;39.50;;;;;;;-144.99;30.79;51922.25;5006680;28;20228;-75
2021/04/17 11:48:15;;;;;;;;;;;;;;;-144.99;30.29;51926.34;5006430;28;20210;-76
2021/04/17 11:50:41;;;;;;;;;;;;;;;-144.99;30.72;51897.81;5006267;28;19991;-74
2021/04/17 11:53:07;;;;;;;;;;;;;;;-144.99;30.75;51891.69;5008728;28;20378;-75
2021/04/17 11:55:33;;;;;;;136.68;70.40;;;;;;;-144.99;30.49;51918.19;5006274;28;24533;-75
2021/04/17 11:57:59;;;;;;;;;;;;;;;-144.99;30.74;51930.41;5006874;28;20292;-73
2021/04/17 12:00:25;;;;;;;80.18;56.03;;;;;;;-144.99;30.02;51922.25;5022214;28;19925;-75
2021/04/17 12:02:52;;;;;;;107.07;63.07;;;;;;;-144.99;29.94;51914.09;5013413;28;20205;-75
2021/04/17 12:05:19;;;;;;;77.37;54.90;;;;;;;-144.99;30.61;51901.88;5022328;28;20246;-75
2021/04/17 12:07:45;;;;;;;69.80;52.05;;;;;;;-144.99;30.31;51918.19;5015426;28;20221;-72
2021/04/17 12:10:12;;;;;;;;;;;;;;;-144.99;30.88;51889.66;5009279;28;20257;-73
2021/04/17 12:12:38;;;;;;;179.40;77.40;;;;;;;-144.99;29.68;51901.88;5008066;28;24905;-74
2021/04/17 12:15:06;;;;;;;85.53;56.50;;;;;;;-144.99;29.20;51877.44;5006205;28;20225;-74
2021/04/17 12:17:32;;;;;;;;;;;;;;;-144.99;29.35;51905.97;5008047;28;20220;-72
2021/04/17 12:19:59;;;;;;;198.37;82.43;;;;;;;-144.99;29.86;51922.25;5009245;28;24491;-74
2021/04/17 12:22:25;;;;;;;151.13;73.20;;;;;;;-144.99;29.20;51932.44;5017164;28;20202;-76